KMLI/MLI METAR and TAF weather

Enter ICAO airport designator
Station Type Date Time Source
KMLI METAR 2019/06/27 07:52 UTC NOAA

KMLI 270752Z AUTO 22003KT 10SM CLR 23/19 A3009 RMK AO2 SLP185 T02280194


Station Type Date Time Source
KMLI Decoded METAR 2019/06/27 07:52 UTC NOAA

MOLINE QUAD-CITY AIRPORT, IL, United States (KMLI) 41-27N 90-31W 184M
Jun 27, 2019 - 03:52 AM EDT / 2019.06.27 0752 UTC
Wind: from the SW (220 degrees) at 3 MPH (3 KT):0
Visibility: 10 mile(s):0
Sky conditions: clear
Temperature: 73.0 F (22.8 C)
Dew Point: 66.9 F (19.4 C)
Relative Humidity: 81%
Pressure (altimeter): 30.09 in. Hg (1018 hPa)
ob: KMLI 270752Z AUTO 22003KT 10SM CLR 23/19 A3009 RMK AO2 SLP185 T02280194
cycle: 8

Station Type Date Time Source
KMLI TAF 2019/06/27 06:36 UTC NOAA

TAF KMLI 270535Z 2706/2806 00000KT P6SM SKC
FM271500 18011KT P6SM SCT120
FM280000 20007KT P6SM SCT090

Example: see airport list